createdAt,value
2019-03-30T00:00:03.020Z,6.06
2019-03-30T00:02:31.690Z,6.10
2019-03-30T00:05:00.372Z,6.22
2019-03-30T00:07:29.135Z,6.33
2019-03-30T00:09:57.817Z,6.36
2019-03-30T00:12:26.498Z,6.30
2019-03-30T00:14:55.185Z,6.32
2019-03-30T00:17:23.845Z,6.42
2019-03-30T00:19:52.528Z,6.41
2019-03-30T00:22:21.215Z,6.38
2019-03-30T00:24:49.898Z,6.48
2019-03-30T00:27:18.562Z,6.47
2019-03-30T00:29:47.259Z,6.47
2019-03-30T00:32:15.918Z,6.48
2019-03-30T00:34:44.619Z,6.51
2019-03-30T00:37:13.300Z,6.53
2019-03-30T00:39:41.988Z,6.57
2019-03-30T00:42:10.670Z,6.56
2019-03-30T00:44:39.346Z,6.44
2019-03-30T00:47:08.028Z,6.25
2019-03-30T00:49:48.558Z,6.14
2019-03-30T00:52:07.140Z,6.07
2019-03-30T00:54:35.819Z,6.06
2019-03-30T00:57:04.503Z,5.97
2019-03-30T00:59:33.189Z,5.93
2019-03-30T01:02:01.879Z,5.91
2019-03-30T01:04:30.572Z,5.92
2019-03-30T01:06:59.246Z,5.90
2019-03-30T01:09:27.936Z,5.78
2019-03-30T01:11:56.616Z,5.62
2019-03-30T01:14:25.304Z,5.59
2019-03-30T01:16:53.975Z,5.65
2019-03-30T01:19:22.652Z,5.68
2019-03-30T01:21:51.331Z,5.70
2019-03-30T01:24:20.020Z,5.74
2019-03-30T01:26:48.744Z,5.69
2019-03-30T01:29:17.416Z,5.77
2019-03-30T01:31:46.098Z,5.81
2019-03-30T01:34:14.785Z,5.98
2019-03-30T01:36:43.470Z,6.04
2019-03-30T01:39:12.198Z,6.11
2019-03-30T01:41:40.891Z,6.14
2019-03-30T01:44:09.559Z,6.11
2019-03-30T01:46:38.225Z,6.07
2019-03-30T01:49:06.901Z,5.94
2019-03-30T01:51:35.576Z,5.78
2019-03-30T01:54:04.356Z,5.79
2019-03-30T01:56:33.039Z,5.71
2019-03-30T01:59:01.727Z,5.65
2019-03-30T02:01:30.404Z,5.71
2019-03-30T02:03:59.110Z,5.67
2019-03-30T02:06:27.758Z,5.53
2019-03-30T02:08:56.427Z,5.51
2019-03-30T02:11:25.117Z,5.60
2019-03-30T02:13:53.802Z,5.58
2019-03-30T02:16:22.490Z,5.51
2019-03-30T02:18:51.149Z,5.35
2019-03-30T02:21:19.834Z,5.28
2019-03-30T02:23:48.514Z,5.16
2019-03-30T02:26:17.206Z,5.03
2019-03-30T02:28:45.887Z,5.03
2019-03-30T02:31:14.577Z,5.01
2019-03-30T02:33:43.281Z,4.78
2019-03-30T02:36:11.946Z,4.76
2019-03-30T02:38:40.631Z,4.79
2019-03-30T02:41:09.323Z,4.68
2019-03-30T02:43:38.016Z,4.64
2019-03-30T02:46:06.690Z,4.56
2019-03-30T02:48:35.410Z,4.44
2019-03-30T02:51:04.169Z,4.31
2019-03-30T02:53:32.829Z,4.30
2019-03-30T02:56:01.519Z,4.30
2019-03-30T02:58:30.208Z,4.32
2019-03-30T03:00:58.889Z,4.52
2019-03-30T03:03:27.582Z,4.48
2019-03-30T03:05:56.269Z,4.48
2019-03-30T03:08:24.939Z,4.35
2019-03-30T03:10:53.636Z,4.35
2019-03-30T03:13:22.316Z,4.29
2019-03-30T03:15:51.004Z,4.15
2019-03-30T03:18:19.688Z,3.98
2019-03-30T03:21:06.087Z,3.97
2019-03-30T03:23:18.821Z,3.87
2019-03-30T03:25:47.516Z,3.77
2019-03-30T03:28:16.159Z,3.66
2019-03-30T03:30:44.858Z,3.58
2019-03-30T03:33:13.515Z,3.71
2019-03-30T03:35:42.201Z,3.70
2019-03-30T03:38:10.888Z,3.63
2019-03-30T03:40:39.573Z,3.55
2019-03-30T03:43:08.246Z,3.56
2019-03-30T03:45:36.919Z,3.71
2019-03-30T03:48:06.398Z,3.77
2019-03-30T03:50:45.375Z,3.81
2019-03-30T03:53:15.738Z,3.91
2019-03-30T03:55:45.152Z,3.89
2019-03-30T03:58:15.659Z,3.75
2019-03-30T04:00:45.319Z,3.61
2019-03-30T04:03:17.304Z,3.45
2019-03-30T04:05:47.087Z,3.41
2019-03-30T04:08:16.284Z,3.40
2019-03-30T04:10:47.152Z,3.45
2019-03-30T04:13:15.958Z,3.49
2019-03-30T04:15:44.590Z,3.49
2019-03-30T04:18:13.375Z,3.47
2019-03-30T04:20:42.050Z,3.36
2019-03-30T04:23:10.755Z,3.35
2019-03-30T04:25:39.433Z,3.26
2019-03-30T04:28:08.123Z,3.25
2019-03-30T04:30:36.804Z,3.33
2019-03-30T04:33:06.832Z,3.35
2019-03-30T04:35:37.644Z,3.32
2019-03-30T04:38:06.355Z,3.37
2019-03-30T04:40:35.015Z,3.50
2019-03-30T04:43:03.684Z,3.50
2019-03-30T04:45:32.368Z,3.48
2019-03-30T04:48:01.092Z,3.52
2019-03-30T04:50:29.812Z,3.50
2019-03-30T04:52:58.474Z,3.54
2019-03-30T04:55:27.165Z,3.53
2019-03-30T04:57:57.757Z,3.57
2019-03-30T05:00:26.282Z,3.68
2019-03-30T05:02:54.957Z,3.81
2019-03-30T05:05:23.667Z,3.88
2019-03-30T05:07:52.346Z,4.04
2019-03-30T05:10:21.021Z,4.31
2019-03-30T05:12:49.709Z,4.61
2019-03-30T05:15:18.388Z,4.88
2019-03-30T05:17:48.157Z,5.20
2019-03-30T05:20:16.915Z,5.46
2019-03-30T05:22:45.582Z,5.62
2019-03-30T05:25:14.271Z,5.89
2019-03-30T05:27:42.944Z,6.07
2019-03-30T05:30:12.128Z,6.26
2019-03-30T05:32:41.774Z,6.33
2019-03-30T05:35:11.121Z,6.33
2019-03-30T05:37:39.782Z,6.45
2019-03-30T05:40:08.957Z,6.62
2019-03-30T05:42:37.625Z,6.65
2019-03-30T05:45:07.866Z,6.63
2019-03-30T05:47:36.573Z,6.74
2019-03-30T05:50:06.701Z,7.01
2019-03-30T05:52:35.733Z,7.27
2019-03-30T05:55:05.431Z,7.53
2019-03-30T05:57:34.126Z,8.04
2019-03-30T06:00:02.825Z,8.42
2019-03-30T06:02:31.536Z,9.16
2019-03-30T06:05:03.066Z,9.68
2019-03-30T06:07:30.586Z,10.37
2019-03-30T06:09:59.248Z,10.61
2019-03-30T06:12:27.936Z,10.94
2019-03-30T06:14:56.611Z,11.40
2019-03-30T06:17:25.291Z,11.44
2019-03-30T06:19:53.962Z,11.57
2019-03-30T06:22:22.657Z,11.65
2019-03-30T06:24:51.334Z,11.87
2019-03-30T06:27:20.029Z,12.22
2019-03-30T06:30:17.210Z,12.37
2019-03-30T06:32:46.407Z,12.65
2019-03-30T06:35:15.174Z,13.47
2019-03-30T06:37:43.869Z,13.71
2019-03-30T06:40:13.430Z,13.85
2019-03-30T06:42:42.111Z,14.68
2019-03-30T06:45:11.072Z,14.63
2019-03-30T06:47:39.794Z,15.00
2019-03-30T06:50:09.475Z,15.54
2019-03-30T06:52:41.254Z,15.64
2019-03-30T06:55:09.364Z,16.53
2019-03-30T06:57:38.103Z,16.52
2019-03-30T07:00:09.093Z,17.08
2019-03-30T07:02:38.703Z,17.47
2019-03-30T07:05:09.403Z,17.99
2019-03-30T07:07:39.178Z,18.60
2019-03-30T07:10:08.665Z,18.38
2019-03-30T07:12:40.433Z,18.79
2019-03-30T07:15:11.015Z,18.97
2019-03-30T07:17:45.371Z,18.69
2019-03-30T07:20:19.580Z,17.33
2019-03-30T07:22:51.180Z,17.59
2019-03-30T07:25:18.743Z,17.67
2019-03-30T07:27:47.427Z,16.68
2019-03-30T07:30:16.117Z,16.90
2019-03-30T07:32:44.864Z,18.76
2019-03-30T07:35:14.077Z,19.60
2019-03-30T07:37:42.808Z,19.43
2019-03-30T07:40:11.499Z,20.79
2019-03-30T07:42:40.172Z,20.42
2019-03-30T07:45:08.957Z,20.53
2019-03-30T07:47:37.637Z,21.42
2019-03-30T07:50:08.379Z,20.46
2019-03-30T07:52:37.102Z,20.98
2019-03-30T07:55:07.275Z,21.83
2019-03-30T07:57:35.966Z,17.35
2019-03-30T08:00:09.834Z,18.02
2019-03-30T08:02:38.522Z,19.39
2019-03-30T08:05:08.105Z,20.39
2019-03-30T08:07:36.789Z,22.38
2019-03-30T08:10:07.738Z,22.80
2019-03-30T08:12:36.415Z,23.25
2019-03-30T08:15:09.795Z,20.66
2019-03-30T08:17:38.459Z,22.12
2019-03-30T08:20:07.651Z,23.13
2019-03-30T08:22:36.525Z,23.34
2019-03-30T08:25:06.612Z,23.97
2019-03-30T08:27:35.299Z,23.04
2019-03-30T08:30:04.905Z,22.76
2019-03-30T08:32:33.607Z,23.77
2019-03-30T08:35:02.272Z,22.11
2019-03-30T08:37:30.970Z,23.20
2019-03-30T08:39:59.645Z,23.33
2019-03-30T08:42:28.330Z,23.21
2019-03-30T08:44:57.005Z,22.01
2019-03-30T08:47:25.684Z,23.49
2019-03-30T08:49:54.380Z,25.04
2019-03-30T08:52:23.054Z,25.32
2019-03-30T08:54:51.856Z,25.77
2019-03-30T08:57:20.715Z,24.27
2019-03-30T08:59:49.414Z,24.24
2019-03-30T09:02:18.108Z,24.87
2019-03-30T09:04:46.909Z,25.66
2019-03-30T09:07:15.597Z,23.59
2019-03-30T09:09:44.282Z,24.23
2019-03-30T09:12:12.978Z,24.69
2019-03-30T09:14:41.660Z,25.87
2019-03-30T09:17:10.374Z,27.16
2019-03-30T09:19:39.055Z,28.45
2019-03-30T09:22:07.741Z,28.62
2019-03-30T09:24:36.443Z,28.75
2019-03-30T09:27:05.146Z,28.10
2019-03-30T09:29:33.850Z,27.47
2019-03-30T09:32:13.776Z,26.76
2019-03-30T09:34:33.034Z,26.72
2019-03-30T09:37:01.771Z,27.19
2019-03-30T09:39:30.456Z,24.45
2019-03-30T09:41:59.134Z,23.23
2019-03-30T09:44:27.824Z,24.57
2019-03-30T09:46:56.547Z,26.39
2019-03-30T09:49:25.241Z,25.44
2019-03-30T09:51:53.915Z,26.28
2019-03-30T09:54:23.911Z,27.65
2019-03-30T09:56:52.774Z,28.57
2019-03-30T09:59:21.450Z,27.17
2019-03-30T10:01:50.140Z,25.78
2019-03-30T10:04:18.812Z,27.24
2019-03-30T10:06:47.480Z,25.82
2019-03-30T10:09:16.161Z,26.16
2019-03-30T10:11:44.847Z,27.20
2019-03-30T10:14:13.514Z,28.37
2019-03-30T10:16:42.191Z,28.29
2019-03-30T10:19:10.947Z,29.01
2019-03-30T10:21:39.629Z,28.01
2019-03-30T10:24:08.355Z,28.51
2019-03-30T10:26:37.030Z,29.27
2019-03-30T10:29:05.714Z,29.06
2019-03-30T10:31:34.383Z,28.69
2019-03-30T10:34:03.063Z,29.98
2019-03-30T10:36:31.745Z,30.40
2019-03-30T10:39:00.414Z,29.32
2019-03-30T10:41:29.099Z,29.43
2019-03-30T10:43:57.798Z,30.13
2019-03-30T10:46:26.607Z,26.44
2019-03-30T10:48:55.375Z,28.20
2019-03-30T10:51:24.069Z,29.81
2019-03-30T10:53:52.732Z,31.50
2019-03-30T10:56:21.415Z,29.78
2019-03-30T10:58:50.109Z,28.63
2019-03-30T11:01:18.792Z,30.42
2019-03-30T11:03:47.476Z,29.56
2019-03-30T11:06:16.165Z,28.13
2019-03-30T11:08:44.865Z,29.13
2019-03-30T11:11:14.463Z,27.98
2019-03-30T11:13:43.147Z,29.36
2019-03-30T11:16:11.818Z,30.28
2019-03-30T11:18:40.526Z,31.47
2019-03-30T11:21:09.269Z,31.14
2019-03-30T11:23:37.883Z,31.13
2019-03-30T11:26:06.585Z,30.58
2019-03-30T11:28:35.264Z,28.00
2019-03-30T11:31:05.560Z,29.62
2019-03-30T11:33:34.398Z,29.98
2019-03-30T11:36:03.118Z,29.95
2019-03-30T11:38:31.779Z,30.29
2019-03-30T11:41:00.467Z,32.06
2019-03-30T11:43:29.129Z,30.28
2019-03-30T11:45:57.837Z,30.49
2019-03-30T11:48:26.537Z,30.01
2019-03-30T11:50:55.246Z,30.87
2019-03-30T11:53:23.934Z,28.66
2019-03-30T11:55:52.629Z,28.03
2019-03-30T11:58:21.315Z,28.31
2019-03-30T12:00:50.024Z,30.23
2019-03-30T12:03:18.716Z,28.78
2019-03-30T12:05:47.376Z,30.52
2019-03-30T12:08:16.067Z,29.90
2019-03-30T12:10:44.749Z,31.21
2019-03-30T12:13:13.446Z,29.42
2019-03-30T12:15:42.135Z,28.06
2019-03-30T12:18:10.815Z,29.14
2019-03-30T12:20:39.486Z,30.99
2019-03-30T12:23:08.231Z,30.58
2019-03-30T12:25:36.897Z,31.89
2019-03-30T12:28:05.588Z,31.09
2019-03-30T12:30:34.258Z,31.03
2019-03-30T12:33:02.985Z,31.78
2019-03-30T12:35:31.656Z,30.73
2019-03-30T12:38:00.373Z,31.09
2019-03-30T12:40:29.051Z,30.83
2019-03-30T12:42:57.736Z,31.06
2019-03-30T12:45:27.011Z,28.58
2019-03-30T12:47:55.697Z,30.31
2019-03-30T12:50:24.493Z,30.12
2019-03-30T12:52:53.168Z,30.06
2019-03-30T12:55:21.878Z,28.99
2019-03-30T12:57:50.563Z,29.79
2019-03-30T13:00:19.395Z,30.87
2019-03-30T13:02:48.086Z,30.56
2019-03-30T13:05:16.820Z,30.68
2019-03-30T13:07:45.516Z,31.17
2019-03-30T13:10:14.297Z,31.60
2019-03-30T13:12:42.987Z,32.50
2019-03-30T13:15:12.677Z,31.74
2019-03-30T13:17:41.359Z,28.11
2019-03-30T13:20:10.169Z,26.42
2019-03-30T13:22:38.838Z,27.87
2019-03-30T13:25:07.658Z,29.08
2019-03-30T13:27:36.353Z,28.92
2019-03-30T13:30:07.712Z,29.09
2019-03-30T13:32:36.390Z,28.63
2019-03-30T13:35:05.155Z,25.96
2019-03-30T13:37:34.033Z,26.49
2019-03-30T13:40:02.737Z,26.36
2019-03-30T13:42:31.418Z,27.38
2019-03-30T13:45:03.163Z,27.29
2019-03-30T13:47:30.539Z,28.55
2019-03-30T13:49:59.235Z,27.75
2019-03-30T13:52:27.955Z,27.54
2019-03-30T13:54:56.642Z,27.31
2019-03-30T13:57:25.327Z,28.10
2019-03-30T13:59:54.009Z,25.72
2019-03-30T14:02:22.806Z,25.11
2019-03-30T14:04:52.557Z,26.40
2019-03-30T14:07:21.622Z,25.34
2019-03-30T14:09:50.295Z,24.53
2019-03-30T14:12:18.997Z,24.17
2019-03-30T14:14:47.672Z,22.57
2019-03-30T14:17:19.871Z,22.68
2019-03-30T14:19:46.797Z,23.35
2019-03-30T14:22:15.518Z,24.81
2019-03-30T14:24:44.211Z,22.44
2019-03-30T14:27:12.863Z,22.85
2019-03-30T14:29:41.631Z,23.57
2019-03-30T14:32:10.314Z,24.09
2019-03-30T14:34:39.014Z,23.79
2019-03-30T14:37:07.700Z,23.86
2019-03-30T14:39:36.375Z,23.83
2019-03-30T14:42:05.281Z,23.29
2019-03-30T14:44:33.947Z,23.85
2019-03-30T14:47:02.624Z,23.55
2019-03-30T14:49:31.369Z,23.13
2019-03-30T14:52:00.067Z,22.14
2019-03-30T14:54:28.831Z,22.09
2019-03-30T14:57:00.542Z,22.34
2019-03-30T14:59:29.248Z,21.20
2019-03-30T15:01:57.959Z,21.19
2019-03-30T15:04:26.644Z,21.46
2019-03-30T15:06:55.327Z,21.78
2019-03-30T15:09:23.995Z,21.46
2019-03-30T15:11:52.734Z,20.57
2019-03-30T15:14:21.442Z,19.53
2019-03-30T15:16:50.133Z,19.70
2019-03-30T15:19:18.819Z,19.44
2019-03-30T15:21:47.507Z,19.43
2019-03-30T15:24:16.195Z,17.79
2019-03-30T15:26:53.893Z,16.68
2019-03-30T15:29:15.279Z,15.80
2019-03-30T15:31:43.963Z,15.44
2019-03-30T15:34:12.660Z,14.85
2019-03-30T15:36:41.442Z,14.63
2019-03-30T15:39:10.121Z,14.48
2019-03-30T15:41:38.918Z,14.20
2019-03-30T15:44:07.699Z,13.94
2019-03-30T15:46:36.383Z,13.84
2019-03-30T15:49:05.073Z,13.75
2019-03-30T15:51:33.767Z,13.49
2019-03-30T15:54:02.464Z,13.18
2019-03-30T15:56:31.198Z,13.03
2019-03-30T15:58:59.885Z,13.04
2019-03-30T16:01:28.568Z,13.05
2019-03-30T16:03:57.246Z,12.80
2019-03-30T16:06:25.943Z,12.80
2019-03-30T16:08:54.628Z,12.77
2019-03-30T16:11:23.353Z,12.70
2019-03-30T16:13:52.018Z,12.65
2019-03-30T16:16:20.723Z,12.60
2019-03-30T16:18:49.430Z,12.61
2019-03-30T16:21:18.104Z,12.47
2019-03-30T16:23:46.805Z,12.32
2019-03-30T16:26:15.661Z,12.26
2019-03-30T16:28:44.393Z,12.20
2019-03-30T16:31:13.067Z,12.08
2019-03-30T16:33:41.783Z,12.00
2019-03-30T16:36:10.469Z,11.92
2019-03-30T16:38:39.144Z,11.81
2019-03-30T16:41:07.832Z,11.73
2019-03-30T16:43:36.565Z,11.67
2019-03-30T16:46:05.347Z,11.55
2019-03-30T16:48:34.114Z,11.55
2019-03-30T16:51:02.779Z,11.43
2019-03-30T16:53:31.457Z,11.37
2019-03-30T16:56:00.161Z,11.27
2019-03-30T16:58:29.257Z,11.19
2019-03-30T17:00:57.962Z,11.10
2019-03-30T17:03:26.808Z,11.02
2019-03-30T17:05:55.558Z,10.92
2019-03-30T17:08:24.230Z,10.78
2019-03-30T17:10:52.917Z,10.77
2019-03-30T17:13:21.599Z,10.79
2019-03-30T17:15:50.305Z,10.78
2019-03-30T17:18:18.999Z,10.64
2019-03-30T17:20:47.696Z,10.53
2019-03-30T17:23:16.514Z,10.49
2019-03-30T17:25:45.196Z,10.46
2019-03-30T17:28:13.882Z,10.47
2019-03-30T17:30:42.599Z,10.52
2019-03-30T17:33:11.273Z,10.55
2019-03-30T17:35:39.953Z,10.54
2019-03-30T17:38:08.695Z,10.51
2019-03-30T17:40:37.365Z,10.47
2019-03-30T17:43:06.044Z,10.39
2019-03-30T17:45:34.735Z,10.32
2019-03-30T17:48:03.411Z,10.33
2019-03-30T17:50:32.101Z,10.25
2019-03-30T17:53:00.794Z,10.23
2019-03-30T17:55:33.902Z,10.22
2019-03-30T17:58:12.305Z,10.24
2019-03-30T18:00:30.374Z,10.31
2019-03-30T18:02:59.064Z,10.20
2019-03-30T18:05:27.814Z,10.01
2019-03-30T18:07:56.506Z,9.93
2019-03-30T18:10:25.176Z,9.91
2019-03-30T18:12:53.849Z,9.83
2019-03-30T18:15:22.536Z,9.87
2019-03-30T18:17:51.215Z,9.89
2019-03-30T18:20:19.993Z,9.90
2019-03-30T18:22:48.674Z,9.86
2019-03-30T18:25:17.370Z,9.83
2019-03-30T18:27:46.058Z,9.69
2019-03-30T18:30:14.975Z,9.57
2019-03-30T18:32:43.855Z,9.40
2019-03-30T18:35:12.659Z,9.57
2019-03-30T18:37:42.110Z,9.58
2019-03-30T18:40:12.521Z,9.59
2019-03-30T18:42:41.180Z,9.62
2019-03-30T18:45:12.776Z,9.56
2019-03-30T18:47:41.497Z,9.55
2019-03-30T18:50:11.748Z,9.57
2019-03-30T18:52:40.510Z,9.48
2019-03-30T18:55:10.729Z,9.36
2019-03-30T18:57:39.408Z,9.21
2019-03-30T19:00:08.399Z,9.19
2019-03-30T19:02:37.119Z,9.09
2019-03-30T19:05:06.271Z,9.04
2019-03-30T19:07:34.963Z,8.92
2019-03-30T19:10:04.562Z,8.84
2019-03-30T19:12:33.266Z,8.78
2019-03-30T19:15:01.934Z,8.73
2019-03-30T19:17:30.631Z,8.68
2019-03-30T19:19:59.310Z,8.57
2019-03-30T19:22:28.010Z,8.53
2019-03-30T19:24:56.695Z,8.52
2019-03-30T19:27:25.377Z,8.59
2019-03-30T19:29:54.064Z,8.59
2019-03-30T19:32:22.764Z,8.57
2019-03-30T19:34:51.442Z,8.55
2019-03-30T19:37:20.132Z,8.47
2019-03-30T19:39:48.829Z,8.43
2019-03-30T19:42:17.518Z,8.37
2019-03-30T19:44:46.409Z,8.31
2019-03-30T19:47:15.097Z,8.14
2019-03-30T19:49:43.766Z,8.02
2019-03-30T19:52:12.461Z,7.96
2019-03-30T19:54:41.130Z,7.79
2019-03-30T19:57:09.857Z,7.84
2019-03-30T19:59:38.554Z,7.85
2019-03-30T20:02:07.222Z,7.79
2019-03-30T20:04:35.906Z,7.85
2019-03-30T20:07:04.685Z,7.83
2019-03-30T20:09:33.369Z,7.73
2019-03-30T20:12:02.147Z,7.69
2019-03-30T20:14:30.771Z,7.62
2019-03-30T20:16:59.461Z,7.49
2019-03-30T20:19:28.140Z,7.40
2019-03-30T20:21:57.411Z,7.41
2019-03-30T20:24:26.403Z,7.44
2019-03-30T20:26:55.066Z,6.91
2019-03-30T20:29:25.445Z,7.48
2019-03-30T20:32:00.968Z,7.42
2019-03-30T20:34:29.679Z,7.36
2019-03-30T20:36:58.324Z,7.32
2019-03-30T20:39:27.021Z,7.32
2019-03-30T20:41:55.812Z,7.45
2019-03-30T20:44:24.500Z,7.51
2019-03-30T20:46:53.178Z,7.54
2019-03-30T20:49:21.869Z,7.59
2019-03-30T20:51:50.655Z,7.65
2019-03-30T20:54:19.345Z,7.68
2019-03-30T20:56:48.021Z,7.77
2019-03-30T20:59:16.685Z,7.81
2019-03-30T21:01:45.368Z,7.74
2019-03-30T21:04:14.061Z,7.62
2019-03-30T21:06:42.746Z,7.51
2019-03-30T21:09:11.431Z,7.36
2019-03-30T21:11:40.120Z,7.29
2019-03-30T21:14:08.789Z,7.00
2019-03-30T21:16:37.464Z,7.09
2019-03-30T21:19:06.153Z,7.00
2019-03-30T21:21:34.817Z,6.94
2019-03-30T21:24:03.510Z,6.90
2019-03-30T21:26:32.184Z,6.92
2019-03-30T21:29:00.949Z,6.86
2019-03-30T21:31:29.615Z,6.79
2019-03-30T21:33:58.728Z,6.69
2019-03-30T21:36:27.414Z,6.55
2019-03-30T21:38:56.097Z,6.55
2019-03-30T21:41:24.766Z,6.60
2019-03-30T21:43:53.447Z,6.53
2019-03-30T21:46:22.161Z,6.52
2019-03-30T21:48:52.354Z,6.49
2019-03-30T21:51:23.835Z,6.45
2019-03-30T21:53:53.295Z,6.34
2019-03-30T21:56:22.238Z,6.42
2019-03-30T21:58:51.323Z,6.52
2019-03-30T22:01:21.378Z,6.50
2019-03-30T22:03:50.474Z,6.49
2019-03-30T22:06:20.719Z,6.44
2019-03-30T22:08:51.392Z,6.40
2019-03-30T22:11:20.392Z,6.32
2019-03-30T22:13:49.767Z,6.21
2019-03-30T22:16:18.778Z,6.15
2019-03-30T22:18:47.991Z,6.10
2019-03-30T22:21:19.461Z,6.08
2019-03-30T22:23:48.669Z,5.95
2019-03-30T22:26:17.789Z,5.85
2019-03-30T22:28:48.475Z,5.82
2019-03-30T22:31:18.944Z,5.87
2019-03-30T22:33:50.636Z,5.90
2019-03-30T22:36:19.410Z,5.88
2019-03-30T22:38:48.217Z,5.99
2019-03-30T22:41:17.013Z,5.98
2019-03-30T22:43:50.179Z,6.00
2019-03-30T22:46:19.173Z,6.09
2019-03-30T22:48:47.862Z,6.05
2019-03-30T22:51:16.875Z,6.14
2019-03-30T22:53:45.851Z,6.22
2019-03-30T22:56:14.801Z,6.29
2019-03-30T22:58:43.786Z,6.25
2019-03-30T23:01:14.500Z,6.23
2019-03-30T23:03:43.587Z,6.18
2019-03-30T23:06:12.401Z,6.21
2019-03-30T23:08:41.404Z,6.13
2019-03-30T23:11:10.411Z,6.16
2019-03-30T23:13:39.244Z,6.26
2019-03-30T23:16:08.429Z,6.22
2019-03-30T23:18:37.522Z,6.15
2019-03-30T23:21:06.610Z,6.18
2019-03-30T23:23:35.287Z,6.12
2019-03-30T23:26:03.981Z,6.09
2019-03-30T23:28:32.664Z,6.04
2019-03-30T23:31:01.340Z,5.90
2019-03-30T23:33:30.034Z,5.80
2019-03-30T23:35:58.705Z,5.77
2019-03-30T23:38:27.375Z,5.71
2019-03-30T23:40:56.066Z,5.67
2019-03-30T23:43:24.723Z,5.60
2019-03-30T23:45:53.403Z,5.68
2019-03-30T23:48:22.084Z,5.78
2019-03-30T23:50:50.869Z,5.77
2019-03-30T23:53:19.545Z,5.54
2019-03-30T23:55:48.251Z,5.67
2019-03-30T23:58:16.941Z,5.67
